Time;durP1;ratioP1;P1;durP2;ratioP2;P2;SDS_P1;SDS_P2;PMS_P1;PMS_P2;Temp;Humidity;BMP_temperature;BMP_pressure;BME280_temperature;BME280_humidity;BME280_pressure;Samples;Min_cycle;Max_cycle;Signal;HPM_P1;HPM_P2
2022/10/27 00:02:39;;;;;;;1.88;1.88;;;;;;;;;;10470943;28;21136;-73
2022/10/27 00:07:40;;;;;;;2.30;2.20;;;;;;;;;;10468015;28;20190;-73
2022/10/27 00:12:41;;;;;;;2.15;2.05;;;;;;;;;;10462657;28;20221;-73
2022/10/27 00:17:42;;;;;;;2.50;2.40;;;;;;;;;;10468568;28;20216;-73
2022/10/27 00:22:43;;;;;;;2.83;2.72;;;;;;;;;;10463636;28;20187;-74
2022/10/27 00:27:44;;;;;;;2.50;2.40;;;;;;;;;;10464678;28;20193;-74
2022/10/27 00:32:45;;;;;;;2.97;2.85;;;;;;;;;;10462503;28;20286;-73
2022/10/27 00:37:46;;;;;;;6.55;3.60;;;;;;;;;;10466353;28;20770;-73
2022/10/27 00:42:48;;;;;;;3.92;3.63;;;;;;;;;;10462220;28;20202;-73
2022/10/27 00:47:49;;;;;;;4.05;3.80;;;;;;;;;;10465651;28;20207;-73
2022/10/27 00:52:51;;;;;;;3.70;3.25;;;;;;;;;;10463390;28;20190;-73
2022/10/27 00:57:55;;;;;;;3.45;3.25;;;;;;;;;;10462297;28;20352;-73
2022/10/27 01:02:57;;;;;;;3.45;3.25;;;;;;;;;;10465539;28;20593;-74
2022/10/27 01:07:59;;;;;;;3.28;2.78;;;;;;;;;;10465516;28;20193;-73
2022/10/27 01:13:00;;;;;;;4.25;2.53;;;;;;;;;;10463642;28;20214;-74
2022/10/27 01:18:22;;;;;;;5.63;2.55;;;;;;;;;;10463229;28;20341;-74
2022/10/27 01:23:43;;;;;;;3.25;2.80;;;;;;;;;;10453011;28;20230;-74
2022/10/27 01:28:47;;;;;;;3.30;3.10;;;;;;;;;;10461284;28;20193;-73
2022/10/27 01:33:58;;;;;;;2.67;2.47;;;;;;;;;;10461320;28;20222;-74
2022/10/27 01:39:05;;;;;;;3.13;2.63;;;;;;;;;;10459753;28;21159;-74
2022/10/27 01:44:09;;;;;;;3.90;2.60;;;;;;;;;;10463189;28;20230;-75
2022/10/27 01:49:10;;;;;;;10.18;2.25;;;;;;;;;;10459753;28;20724;-74
2022/10/27 01:54:11;;;;;;;2.65;2.40;;;;;;;;;;10459578;28;20932;-74
2022/10/27 01:59:15;;;;;;;2.42;2.22;;;;;;;;;;10462800;28;20240;-74
2022/10/27 02:04:16;;;;;;;3.78;2.40;;;;;;;;;;10461415;28;20213;-74
2022/10/27 02:09:36;;;;;;;2.70;2.60;;;;;;;;;;10460318;28;20196;-74
2022/10/27 02:14:38;;;;;;;2.60;2.42;;;;;;;;;;10456391;28;20742;-74
2022/10/27 02:19:41;;;;;;;3.38;2.65;;;;;;;;;;10462142;28;20246;-74
2022/10/27 02:24:42;;;;;;;2.63;2.42;;;;;;;;;;10461508;28;20197;-73
2022/10/27 02:29:48;;;;;;;4.05;2.85;;;;;;;;;;10465304;28;20741;-74
2022/10/27 02:34:49;;;;;;;4.75;2.75;;;;;;;;;;10462621;28;20218;-74
2022/10/27 02:39:50;;;;;;;2.70;2.50;;;;;;;;;;10461455;28;20217;-74
2022/10/27 02:44:52;;;;;;;2.25;2.05;;;;;;;;;;10460868;28;20280;-73
2022/10/27 02:49:53;;;;;;;2.58;2.45;;;;;;;;;;10460969;28;20931;-74
2022/10/27 02:54:54;;;;;;;3.50;3.13;;;;;;;;;;10469381;28;20182;-74
2022/10/27 02:59:55;;;;;;;2.50;2.33;;;;;;;;;;10470080;28;20214;-74
2022/10/27 03:04:56;;;;;;;2.63;2.53;;;;;;;;;;10467442;28;20218;-74
2022/10/27 03:09:57;;;;;;;4.55;3.13;;;;;;;;;;10465952;28;20194;-74
2022/10/27 03:14:59;;;;;;;2.83;2.72;;;;;;;;;;10466024;28;20549;-74
2022/10/27 03:20:00;;;;;;;4.00;2.55;;;;;;;;;;10468165;28;20218;-74
2022/10/27 03:25:01;;;;;;;3.20;2.35;;;;;;;;;;10463981;28;20194;-74
2022/10/27 03:30:02;;;;;;;3.88;2.38;;;;;;;;;;10462757;28;20202;-75
2022/10/27 03:35:04;;;;;;;2.70;2.40;;;;;;;;;;10462103;28;20242;-74
2022/10/27 03:40:05;;;;;;;3.70;2.67;;;;;;;;;;10463754;28;20222;-73
2022/10/27 03:45:07;;;;;;;2.70;2.60;;;;;;;;;;10460211;28;20210;-74
2022/10/27 03:50:08;;;;;;;2.92;2.63;;;;;;;;;;10460646;28;20226;-74
2022/10/27 03:55:09;;;;;;;3.70;2.60;;;;;;;;;;10458647;28;20257;-75
2022/10/27 04:00:11;;;;;;;2.88;2.38;;;;;;;;;;10457945;28;20610;-74
2022/10/27 04:05:13;;;;;;;2.25;2.22;;;;;;;;;;10462644;28;20861;-75
2022/10/27 04:10:14;;;;;;;2.83;2.72;;;;;;;;;;10459734;28;20310;-74
2022/10/27 04:15:15;;;;;;;4.13;2.50;;;;;;;;;;10459759;28;20210;-75
2022/10/27 04:20:16;;;;;;;3.30;2.78;;;;;;;;;;10455538;28;20261;-75
2022/10/27 04:25:18;;;;;;;2.85;2.65;;;;;;;;;;10453559;28;20213;-75
2022/10/27 04:30:19;;;;;;;2.40;2.20;;;;;;;;;;10460707;28;20195;-74
2022/10/27 04:35:20;;;;;;;4.00;3.05;;;;;;;;;;10459938;28;20190;-75
2022/10/27 04:40:21;;;;;;;2.60;2.50;;;;;;;;;;10463429;28;20219;-75
2022/10/27 04:45:22;;;;;;;3.00;2.72;;;;;;;;;;10450817;28;20226;-75
2022/10/27 04:50:23;;;;;;;2.45;2.25;;;;;;;;;;10453550;28;20187;-75
2022/10/27 04:55:26;;;;;;;2.30;2.20;;;;;;;;;;10459562;28;20187;-74
2022/10/27 05:00:27;;;;;;;3.53;3.22;;;;;;;;;;10461002;28;20274;-75
2022/10/27 05:05:28;;;;;;;2.70;2.50;;;;;;;;;;10461316;28;20198;-75
2022/10/27 05:10:30;;;;;;;3.28;3.00;;;;;;;;;;10459569;28;20194;-75
2022/10/27 05:15:31;;;;;;;5.47;4.20;;;;;;;;;;10455469;28;20194;-75
2022/10/27 05:20:33;;;;;;;3.75;3.45;;;;;;;;;;10449085;28;20309;-75
2022/10/27 05:25:34;;;;;;;2.65;2.55;;;;;;;;;;10454609;28;20626;-75
2022/10/27 05:30:35;;;;;;;3.63;3.30;;;;;;;;;;10460109;28;20194;-75
2022/10/27 05:35:36;;;;;;;3.08;2.80;;;;;;;;;;10445233;28;20221;-75
2022/10/27 05:40:37;;;;;;;4.38;3.00;;;;;;;;;;10451432;28;20218;-74
2022/10/27 05:45:38;;;;;;;3.20;2.92;;;;;;;;;;10453776;28;20283;-75
2022/10/27 05:50:39;;;;;;;3.03;2.88;;;;;;;;;;10446867;28;20194;-74
2022/10/27 05:55:40;;;;;;;3.45;3.25;;;;;;;;;;10452472;28;20194;-74
2022/10/27 06:00:42;;;;;;;5.82;2.85;;;;;;;;;;10459926;28;20236;-73
2022/10/27 06:05:43;;;;;;;4.15;3.72;;;;;;;;;;10456451;28;20261;-73
2022/10/27 06:10:44;;;;;;;6.47;3.67;;;;;;;;;;10458790;28;20194;-73
2022/10/27 06:15:46;;;;;;;5.75;3.88;;;;;;;;;;10456542;28;20206;-73
2022/10/27 06:20:47;;;;;;;4.28;3.95;;;;;;;;;;10457849;28;20305;-73
2022/10/27 06:25:48;;;;;;;4.13;3.58;;;;;;;;;;10461541;28;20210;-72
2022/10/27 06:30:49;;;;;;;4.10;3.70;;;;;;;;;;10442350;28;20241;-73
2022/10/27 06:35:50;;;;;;;3.95;3.17;;;;;;;;;;10462788;28;20195;-73
2022/10/27 06:40:51;;;;;;;4.05;3.42;;;;;;;;;;10459866;28;20341;-73
2022/10/27 06:45:52;;;;;;;3.85;3.50;;;;;;;;;;10458917;28;20705;-73
2022/10/27 06:50:53;;;;;;;3.50;3.17;;;;;;;;;;10455807;28;21002;-74
2022/10/27 06:55:54;;;;;;;3.67;3.33;;;;;;;;;;10453729;28;20194;-74
2022/10/27 07:00:58;;;;;;;5.78;4.32;;;;;;;;;;10459206;28;20226;-74
2022/10/27 07:06:00;;;;;;;10.60;3.70;;;;;;;;;;10453882;28;20317;-75
2022/10/27 07:11:01;;;;;;;4.50;4.00;;;;;;;;;;10456940;28;20652;-74
2022/10/27 07:16:02;;;;;;;6.65;4.30;;;;;;;;;;10461158;28;20193;-74
2022/10/27 07:21:04;;;;;;;4.88;4.35;;;;;;;;;;10461197;28;20194;-74
2022/10/27 07:26:05;;;;;;;4.65;4.10;;;;;;;;;;10459673;28;20953;-76
2022/10/27 07:31:06;;;;;;;7.07;4.68;;;;;;;;;;10459336;28;20777;-74
2022/10/27 07:36:07;;;;;;;5.63;4.68;;;;;;;;;;10455814;28;20236;-75
2022/10/27 07:41:09;;;;;;;5.60;5.10;;;;;;;;;;10459913;28;20588;-75
2022/10/27 07:46:10;;;;;;;5.40;4.85;;;;;;;;;;10467433;28;20242;-75
2022/10/27 07:51:11;;;;;;;6.40;4.53;;;;;;;;;;10466490;28;20237;-75
2022/10/27 07:56:12;;;;;;;5.68;5.15;;;;;;;;;;10469354;28;20267;-75
2022/10/27 08:01:13;;;;;;;5.25;4.53;;;;;;;;;;10468451;28;20211;-75
2022/10/27 08:06:14;;;;;;;5.85;4.72;;;;;;;;;;10460319;28;20732;-75
2022/10/27 08:11:15;;;;;;;4.88;4.43;;;;;;;;;;10464000;28;20281;-74
2022/10/27 08:16:16;;;;;;;4.93;4.15;;;;;;;;;;10466080;28;20234;-75
2022/10/27 08:21:17;;;;;;;5.25;4.03;;;;;;;;;;10462131;28;20543;-74
2022/10/27 08:26:20;;;;;;;4.53;3.72;;;;;;;;;;10446107;28;20195;-74
2022/10/27 08:31:21;;;;;;;6.05;3.60;;;;;;;;;;10448837;28;20218;-74
2022/10/27 08:36:22;;;;;;;6.75;3.97;;;;;;;;;;10458258;28;20700;-75
2022/10/27 08:41:25;;;;;;;6.05;3.60;;;;;;;;;;10456904;28;20203;-74
2022/10/27 08:46:42;;;;;;;3.45;3.35;;;;;;;;;;10464134;28;20606;-74
2022/10/27 08:51:44;;;;;;;3.22;2.95;;;;;;;;;;10460773;28;20251;-75
2022/10/27 08:56:46;;;;;;;3.78;3.08;;;;;;;;;;10458637;28;20210;-74
2022/10/27 09:01:51;;;;;;;3.47;3.28;;;;;;;;;;10457014;28;20222;-73
2022/10/27 09:06:56;;;;;;;3.50;3.22;;;;;;;;;;10460505;28;20193;-75
2022/10/27 09:12:00;;;;;;;3.00;2.70;;;;;;;;;;10461376;28;20642;-77
2022/10/27 09:17:03;;;;;;;10.00;3.15;;;;;;;;;;10463728;28;20693;-75
2022/10/27 09:22:05;;;;;;;3.42;2.72;;;;;;;;;;10461041;28;20194;-75
2022/10/27 09:27:07;;;;;;;5.18;2.42;;;;;;;;;;10456182;28;20736;-75
2022/10/27 09:32:15;;;;;;;4.07;3.60;;;;;;;;;;10458837;28;20315;-75
2022/10/27 09:37:17;;;;;;;6.93;3.20;;;;;;;;;;10458775;28;20210;-76
2022/10/27 09:42:19;;;;;;;2.65;2.45;;;;;;;;;;10462172;28;20289;-75
2022/10/27 09:47:22;;;;;;;2.40;2.15;;;;;;;;;;10463565;28;20228;-75
2022/10/27 09:52:31;;;;;;;2.88;1.85;;;;;;;;;;10460703;28;20194;-71
2022/10/27 09:57:33;;;;;;;2.53;1.50;;;;;;;;;;10458810;28;20214;-72
2022/10/27 10:02:36;;;;;;;2.38;1.33;;;;;;;;;;10459061;28;20210;-73
2022/10/27 10:07:42;;;;;;;6.03;1.40;;;;;;;;;;10456986;28;20186;-71
2022/10/27 10:12:43;;;;;;;5.32;1.08;;;;;;;;;;10453103;28;20214;-71
2022/10/27 10:17:52;;;;;;;1.02;0.98;;;;;;;;;;10458072;28;20621;-71
2022/10/27 10:22:53;;;;;;;1.95;0.80;;;;;;;;;;10458534;28;20199;-73
2022/10/27 10:27:59;;;;;;;4.43;1.17;;;;;;;;;;10459728;28;20281;-73
2022/10/27 10:33:01;;;;;;;1.85;1.17;;;;;;;;;;10453757;28;20696;-74
2022/10/27 10:38:19;;;;;;;1.85;1.13;;;;;;;;;;10458122;28;20227;-73
2022/10/27 10:43:20;;;;;;;2.53;1.23;;;;;;;;;;10451072;28;20218;-73
2022/10/27 10:48:32;;;;;;;1.02;0.90;;;;;;;;;;10453016;28;20207;-74
2022/10/27 10:53:53;;;;;;;1.50;1.20;;;;;;;;;;10452266;28;20210;-73
2022/10/27 10:59:09;;;;;;;4.55;1.27;;;;;;;;;;10448621;28;20664;-73
2022/10/27 11:04:12;;;;;;;5.35;1.30;;;;;;;;;;10447311;28;20287;-74
2022/10/27 11:09:13;;;;;;;2.15;1.30;;;;;;;;;;10444337;28;20190;-73
2022/10/27 11:14:15;;;;;;;1.98;1.77;;;;;;;;;;10451374;28;20207;-74
2022/10/27 11:19:18;;;;;;;3.85;2.22;;;;;;;;;;10458038;28;20234;-73
2022/10/27 11:24:21;;;;;;;2.40;2.20;;;;;;;;;;10457036;28;20187;-71
2022/10/27 11:29:25;;;;;;;3.63;1.88;;;;;;;;;;10462151;28;20183;-72
2022/10/27 11:34:31;;;;;;;1.98;1.88;;;;;;;;;;10459964;28;20222;-71
2022/10/27 11:39:47;;;;;;;1.92;1.75;;;;;;;;;;10458976;28;20215;-71
2022/10/27 11:44:57;;;;;;;4.60;1.45;;;;;;;;;;10458513;28;20698;-71
2022/10/27 11:50:02;;;;;;;1.45;1.35;;;;;;;;;;10462026;28;20201;-71
2022/10/27 11:55:05;;;;;;;4.72;1.65;;;;;;;;;;10458617;28;20306;-70
2022/10/27 12:00:15;;;;;;;2.38;1.52;;;;;;;;;;10456454;28;20211;-70
2022/10/27 12:05:23;;;;;;;1.20;1.10;;;;;;;;;;10460612;28;20226;-71
2022/10/27 12:10:30;;;;;;;1.33;1.20;;;;;;;;;;10457935;28;20198;-70
2022/10/27 12:15:36;;;;;;;7.38;1.33;;;;;;;;;;10460018;28;20202;-71
2022/10/27 12:20:50;;;;;;;4.80;1.10;;;;;;;;;;10443445;28;20293;-71
2022/10/27 12:25:54;;;;;;;0.90;0.90;;;;;;;;;;10462636;28;20190;-69
2022/10/27 12:30:58;;;;;;;1.17;0.82;;;;;;;;;;10458237;28;20580;-73
2022/10/27 12:36:06;;;;;;;1.02;0.73;;;;;;;;;;10453626;28;20500;-73
2022/10/27 12:41:07;;;;;;;1.52;0.60;;;;;;;;;;10452940;28;20363;-72
2022/10/27 12:46:23;;;;;;;3.25;0.60;;;;;;;;;;10454815;28;20687;-74
2022/10/27 12:51:34;;;;;;;0.73;0.73;;;;;;;;;;10459496;28;20190;-74
2022/10/27 12:56:48;;;;;;;1.15;0.60;;;;;;;;;;10458188;28;20210;-74
2022/10/27 13:02:00;;;;;;;0.60;0.60;;;;;;;;;;10462889;28;20229;-73
2022/10/27 13:07:20;;;;;;;0.80;0.80;;;;;;;;;;10460778;28;20198;-72
2022/10/27 13:12:32;;;;;;;2.50;0.60;;;;;;;;;;10458380;28;20211;-74
2022/10/27 13:17:36;;;;;;;1.95;0.57;;;;;;;;;;10463755;28;20700;-73
2022/10/27 13:22:39;;;;;;;4.28;1.15;;;;;;;;;;10465184;28;20196;-74
2022/10/27 13:27:46;;;;;;;0.55;0.52;;;;;;;;;;10464494;28;20197;-74
2022/10/27 13:32:47;;;;;;;0.60;0.50;;;;;;;;;;10458556;28;20231;-72
2022/10/27 13:37:54;;;;;;;0.60;0.57;;;;;;;;;;10462676;28;20353;-74
2022/10/27 13:42:56;;;;;;;0.70;0.70;;;;;;;;;;10459039;28;20202;-73
2022/10/27 13:48:09;;;;;;;0.55;0.55;;;;;;;;;;10457713;28;20669;-73
2022/10/27 13:53:14;;;;;;;3.75;0.77;;;;;;;;;;10450915;28;20256;-73
2022/10/27 13:58:22;;;;;;;3.45;0.50;;;;;;;;;;10454423;28;20215;-73
2022/10/27 14:03:42;;;;;;;0.85;0.52;;;;;;;;;;10452141;28;20214;-73
2022/10/27 14:08:43;;;;;;;0.30;0.30;;;;;;;;;;10450070;28;20191;-73
2022/10/27 14:13:45;;;;;;;1.00;0.45;;;;;;;;;;10456512;28;20238;-74
2022/10/27 14:18:57;;;;;;;3.50;0.40;;;;;;;;;;10454802;28;20876;-73
2022/10/27 14:24:06;;;;;;;1.27;0.40;;;;;;;;;;10454036;28;20190;-74
2022/10/27 14:29:17;;;;;;;1.75;0.63;;;;;;;;;;10454981;28;20960;-74
2022/10/27 14:34:22;;;;;;;2.55;0.50;;;;;;;;;;10447796;28;20331;-74
2022/10/27 14:39:35;;;;;;;0.40;0.40;;;;;;;;;;10456772;28;20229;-74
2022/10/27 14:44:36;;;;;;;0.40;0.40;;;;;;;;;;10453382;28;20226;-73
2022/10/27 14:49:48;;;;;;;1.10;0.50;;;;;;;;;;10456267;28;20204;-73
2022/10/27 14:54:53;;;;;;;1.05;0.50;;;;;;;;;;10461049;28;20270;-74
2022/10/27 14:59:54;;;;;;;0.40;0.40;;;;;;;;;;10465181;28;20215;-74
2022/10/27 15:05:10;;;;;;;1.55;0.50;;;;;;;;;;10459772;28;20943;-74
2022/10/27 15:10:18;;;;;;;3.92;0.50;;;;;;;;;;10465818;28;20974;-73
2022/10/27 15:15:19;;;;;;;0.68;0.40;;;;;;;;;;10463987;28;20206;-73
2022/10/27 15:20:21;;;;;;;0.75;0.63;;;;;;;;;;10461092;28;20225;-70
2022/10/27 15:25:24;;;;;;;0.95;0.70;;;;;;;;;;10451377;28;20654;-72
2022/10/27 15:30:25;;;;;;;0.55;0.55;;;;;;;;;;10439214;28;20655;-70
2022/10/27 15:35:28;;;;;;;2.03;0.60;;;;;;;;;;10457888;28;21114;-72
2022/10/27 15:40:30;;;;;;;0.63;0.63;;;;;;;;;;10457317;28;20221;-72
2022/10/27 15:45:43;;;;;;;1.40;0.80;;;;;;;;;;10466194;28;20333;-71
2022/10/27 15:50:55;;;;;;;0.50;0.50;;;;;;;;;;10457336;28;20229;-74
2022/10/27 15:56:01;;;;;;;0.95;0.70;;;;;;;;;;10453130;28;20203;-70
2022/10/27 16:01:07;;;;;;;5.22;0.63;;;;;;;;;;10458470;28;20259;-73
2022/10/27 16:06:18;;;;;;;1.30;0.60;;;;;;;;;;10460493;28;20197;-71
2022/10/27 16:11:23;;;;;;;3.15;1.10;;;;;;;;;;10455015;28;20230;-74
2022/10/27 16:16:25;;;;;;;3.80;1.25;;;;;;;;;;10460642;28;20223;-74
2022/10/27 16:21:33;;;;;;;1.38;0.85;;;;;;;;;;10459800;28;20183;-72
2022/10/27 16:26:35;;;;;;;0.85;0.85;;;;;;;;;;10466464;28;20195;-74
2022/10/27 16:31:36;;;;;;;1.60;0.95;;;;;;;;;;10460130;28;20237;-76
2022/10/27 16:36:37;;;;;;;1.40;1.08;;;;;;;;;;10467899;28;20219;-72
2022/10/27 16:41:38;;;;;;;0.93;0.93;;;;;;;;;;10460235;28;20232;-74
2022/10/27 16:46:39;;;;;;;2.05;1.10;;;;;;;;;;10459859;28;20227;-73
2022/10/27 16:51:40;;;;;;;1.67;1.40;;;;;;;;;;10464995;28;20190;-75
2022/10/27 16:56:41;;;;;;;2.92;1.33;;;;;;;;;;10471404;28;20198;-73
2022/10/27 17:01:49;;;;;;;0.73;0.73;;;;;;;;;;10471777;28;20210;-73
2022/10/27 17:06:50;;;;;;;1.02;0.98;;;;;;;;;;10456469;28;20236;-72
2022/10/27 17:11:51;;;;;;;1.10;1.10;;;;;;;;;;10456692;28;20647;-71
2022/10/27 17:16:52;;;;;;;1.52;1.42;;;;;;;;;;10455472;28;20206;-73
2022/10/27 17:21:53;;;;;;;1.30;1.30;;;;;;;;;;10460820;28;20695;-74
2022/10/27 17:26:57;;;;;;;1.65;1.55;;;;;;;;;;10461399;28;20201;-73
2022/10/27 17:31:58;;;;;;;2.95;2.75;;;;;;;;;;10452442;28;20339;-74
2022/10/27 17:36:59;;;;;;;3.67;3.38;;;;;;;;;;10457112;28;20254;-75
2022/10/27 17:42:00;;;;;;;3.63;3.42;;;;;;;;;;10453319;28;20210;-75
2022/10/27 17:47:02;;;;;;;3.25;2.80;;;;;;;;;;10460839;28;20225;-74
2022/10/27 17:52:03;;;;;;;2.58;2.47;;;;;;;;;;10458576;28;20608;-74
2022/10/27 17:57:05;;;;;;;2.88;2.78;;;;;;;;;;10457205;28;20301;-74
2022/10/27 18:02:08;;;;;;;4.85;2.60;;;;;;;;;;10459479;28;20215;-75
2022/10/27 18:07:09;;;;;;;2.47;2.25;;;;;;;;;;10459747;28;20778;-75
2022/10/27 18:12:11;;;;;;;5.22;2.33;;;;;;;;;;10441000;28;20210;-73
2022/10/27 18:17:12;;;;;;;3.47;3.03;;;;;;;;;;10451831;28;20217;-74
2022/10/27 18:22:13;;;;;;;3.83;3.45;;;;;;;;;;10456548;28;20674;-73
2022/10/27 18:27:14;;;;;;;3.88;3.08;;;;;;;;;;10456788;28;20272;-73
2022/10/27 18:32:20;;;;;;;6.05;4.93;;;;;;;;;;10455296;28;20356;-73
2022/10/27 18:37:21;;;;;;;2.90;2.70;;;;;;;;;;10455880;28;20211;-73
2022/10/27 18:42:23;;;;;;;3.25;3.05;;;;;;;;;;10454645;28;20296;-74
2022/10/27 18:47:24;;;;;;;5.50;4.65;;;;;;;;;;10456862;28;20301;-74
2022/10/27 18:52:25;;;;;;;3.95;3.50;;;;;;;;;;10452742;28;20190;-73
2022/10/27 18:57:26;;;;;;;3.47;3.17;;;;;;;;;;10451489;28;20221;-74
2022/10/27 19:02:27;;;;;;;3.22;3.03;;;;;;;;;;10453871;28;20238;-74
2022/10/27 19:07:28;;;;;;;3.45;3.30;;;;;;;;;;10451223;28;20236;-73
2022/10/27 19:12:30;;;;;;;6.05;3.95;;;;;;;;;;10453514;28;20211;-74
2022/10/27 19:17:31;;;;;;;4.82;4.35;;;;;;;;;;10451292;28;20210;-74
2022/10/27 19:22:32;;;;;;;4.97;4.68;;;;;;;;;;10456845;28;20190;-73
2022/10/27 19:27:33;;;;;;;4.07;3.63;;;;;;;;;;10457441;28;20913;-73
2022/10/27 19:32:34;;;;;;;4.05;3.80;;;;;;;;;;10456144;28;20214;-70
2022/10/27 19:37:35;;;;;;;6.32;5.60;;;;;;;;;;10458704;28;20218;-69
2022/10/27 19:42:36;;;;;;;10.48;7.75;;;;;;;;;;10457140;28;20220;-71
2022/10/27 19:47:37;;;;;;;17.13;13.95;;;;;;;;;;10467554;28;21171;-73
2022/10/27 19:52:38;;;;;;;8.60;5.70;;;;;;;;;;10462189;28;20248;-71
2022/10/27 19:57:41;;;;;;;7.25;6.47;;;;;;;;;;10459974;28;20215;-72
2022/10/27 20:02:42;;;;;;;7.05;5.75;;;;;;;;;;10453281;28;20232;-74
2022/10/27 20:07:43;;;;;;;5.05;4.65;;;;;;;;;;10461408;28;20295;-73
2022/10/27 20:12:45;;;;;;;4.95;4.60;;;;;;;;;;10463939;28;20210;-72
2022/10/27 20:17:47;;;;;;;3.50;3.20;;;;;;;;;;10465998;28;20309;-73
2022/10/27 20:22:48;;;;;;;3.22;2.92;;;;;;;;;;10463657;28;20301;-73
2022/10/27 20:27:49;;;;;;;4.25;3.60;;;;;;;;;;10466302;28;20654;-72
2022/10/27 20:32:50;;;;;;;3.67;3.47;;;;;;;;;;10475435;28;20697;-73
2022/10/27 20:37:51;;;;;;;3.63;3.42;;;;;;;;;;10470690;28;20309;-73
2022/10/27 20:42:52;;;;;;;3.78;3.30;;;;;;;;;;10464614;28;20303;-73
2022/10/27 20:47:53;;;;;;;4.35;3.20;;;;;;;;;;10463557;28;20190;-73
2022/10/27 20:52:54;;;;;;;3.42;3.13;;;;;;;;;;10464119;28;20322;-73
2022/10/27 20:57:55;;;;;;;3.28;3.08;;;;;;;;;;10464593;28;20350;-73
2022/10/27 21:02:56;;;;;;;2.95;2.72;;;;;;;;;;10463300;28;20218;-73
2022/10/27 21:07:57;;;;;;;2.97;2.22;;;;;;;;;;10462855;28;20195;-73
2022/10/27 21:12:58;;;;;;;7.20;4.72;;;;;;;;;;10458688;28;20209;-72
2022/10/27 21:18:00;;;;;;;3.60;2.42;;;;;;;;;;10466456;28;20547;-72
2022/10/27 21:23:01;;;;;;;3.17;2.70;;;;;;;;;;10461814;28;20232;-73
2022/10/27 21:28:02;;;;;;;3.35;3.20;;;;;;;;;;10465494;28;20198;-73
2022/10/27 21:33:03;;;;;;;6.53;5.80;;;;;;;;;;10461898;28;20224;-72
2022/10/27 21:38:04;;;;;;;4.95;3.22;;;;;;;;;;10462504;28;20584;-73
2022/10/27 21:43:05;;;;;;;3.22;2.83;;;;;;;;;;10462483;28;20924;-72
2022/10/27 21:48:06;;;;;;;7.07;5.63;;;;;;;;;;10461770;28;20954;-72
2022/10/27 21:53:07;;;;;;;10.57;7.78;;;;;;;;;;10462181;28;20263;-73
2022/10/27 21:58:09;;;;;;;5.97;5.25;;;;;;;;;;10460640;28;20685;-72
2022/10/27 22:03:10;;;;;;;4.72;3.65;;;;;;;;;;10460383;28;20639;-73
2022/10/27 22:08:11;;;;;;;6.68;3.70;;;;;;;;;;10460815;28;20531;-73
2022/10/27 22:13:12;;;;;;;4.15;3.50;;;;;;;;;;10457672;28;20213;-73
2022/10/27 22:18:13;;;;;;;9.00;4.03;;;;;;;;;;10461943;28;20228;-73
2022/10/27 22:23:14;;;;;;;4.53;2.85;;;;;;;;;;10463562;28;20646;-73
2022/10/27 22:28:15;;;;;;;8.25;4.53;;;;;;;;;;10457919;28;20201;-73
2022/10/27 22:33:16;;;;;;;4.63;4.32;;;;;;;;;;10456605;28;20277;-73
2022/10/27 22:38:17;;;;;;;3.47;3.17;;;;;;;;;;10462385;28;21005;-73
2022/10/27 22:43:18;;;;;;;6.82;3.47;;;;;;;;;;10459597;28;20241;-72
2022/10/27 22:48:20;;;;;;;5.13;2.35;;;;;;;;;;10461768;28;20256;-72
2022/10/27 22:53:21;;;;;;;3.65;3.15;;;;;;;;;;10460177;28;20187;-72
2022/10/27 22:58:22;;;;;;;4.00;2.85;;;;;;;;;;10459892;28;20241;-72
2022/10/27 23:03:23;;;;;;;3.97;3.65;;;;;;;;;;10458515;28;20211;-73
2022/10/27 23:08:24;;;;;;;5.68;3.85;;;;;;;;;;10464706;28;20194;-73
2022/10/27 23:13:26;;;;;;;3.92;2.60;;;;;;;;;;10468446;28;20579;-73
2022/10/27 23:18:28;;;;;;;4.40;1.90;;;;;;;;;;10469912;28;20694;-73
2022/10/27 23:23:29;;;;;;;3.35;2.42;;;;;;;;;;10467251;28;20190;-73
2022/10/27 23:28:31;;;;;;;3.00;2.70;;;;;;;;;;10469601;28;20231;-73
2022/10/27 23:33:32;;;;;;;5.65;2.60;;;;;;;;;;10465039;28;20218;-73
2022/10/27 23:38:33;;;;;;;2.72;2.50;;;;;;;;;;10467207;28;20223;-72
2022/10/27 23:43:34;;;;;;;5.32;2.83;;;;;;;;;;10464032;28;20244;-73
2022/10/27 23:48:36;;;;;;;2.60;2.47;;;;;;;;;;10470080;28;20190;-73
2022/10/27 23:53:37;;;;;;;4.82;2.80;;;;;;;;;;10465366;28;20270;-73
2022/10/27 23:58:39;;;;;;;4.70;3.08;;;;;;;;;;10465719;28;20385;-72
